Time,TemperatureF,DewpointF,PressureIn,WindDirection,WindDirectionDegrees,WindSpeedMPH,WindSpeedGustMPH,Humidity,HourlyPrecipIn,Conditions,Clouds,dailyrainin,SolarRadiationWatts/m^2,SoftwareType,DateUTC
2013-03-16 00:02:00,57.6,29.5,29.99,NW,308,0.0,1.0,34,0.00,,,0.00,0.0,meteohub,2013-03-16 07:02:00,
2013-03-16 00:07:00,57.4,29.3,29.99,NW,308,0.0,1.0,34,0.00,,,0.00,0.0,meteohub,2013-03-16 07:07:00,
2013-03-16 00:12:00,57.4,29.3,29.99,NW,308,0.0,1.0,34,0.00,,,0.00,0.0,meteohub,2013-03-16 07:12:00,
2013-03-16 00:17:00,57.0,29.7,29.99,NW,308,0.0,1.0,35,0.00,,,0.00,0.0,meteohub,2013-03-16 07:17:00,
2013-03-16 00:22:00,56.8,29.5,29.99,NW,308,1.0,1.0,35,0.00,,,0.00,0.0,meteohub,2013-03-16 07:22:00,
2013-03-16 00:27:00,57.0,29.7,29.99,NW,308,1.0,1.0,35,0.00,,,0.00,0.0,meteohub,2013-03-16 07:27:00,
2013-03-16 00:32:00,56.8,29.5,29.99,NW,308,1.0,1.0,35,0.00,,,0.00,0.0,meteohub,2013-03-16 07:32:00,
2013-03-16 00:37:00,56.8,29.5,29.99,NW,308,1.0,2.0,35,0.00,,,0.00,0.0,meteohub,2013-03-16 07:37:00,
2013-03-16 00:42:00,56.8,29.5,29.99,NW,308,0.0,2.0,35,0.00,,,0.00,0.0,meteohub,2013-03-16 07:42:00,
2013-03-16 00:47:00,56.8,30.2,29.99,NW,308,1.0,2.0,36,0.00,,,0.00,0.0,meteohub,2013-03-16 07:47:00,
2013-03-16 00:52:00,56.5,29.8,29.99,NW,308,0.0,2.0,36,0.00,,,0.00,0.0,meteohub,2013-03-16 07:52:00,
2013-03-16 00:57:00,56.5,29.8,29.99,NW,308,1.0,2.0,36,0.00,,,0.00,0.0,meteohub,2013-03-16 07:57:00,
2013-03-16 01:02:00,56.5,29.8,29.99,NW,308,0.0,1.0,36,0.00,,,0.00,0.0,meteohub,2013-03-16 08:02:00,
2013-03-16 01:07:00,56.7,29.3,29.99,NW,308,1.0,1.0,35,0.00,,,0.00,0.0,meteohub,2013-03-16 08:07:00,
2013-03-16 01:12:00,57.4,28.6,29.99,NW,308,1.0,2.0,33,0.00,,,0.00,0.0,meteohub,2013-03-16 08:12:00,
2013-03-16 01:17:00,58.3,27.9,29.98,NW,308,1.0,2.0,31,0.00,,,0.00,0.0,meteohub,2013-03-16 08:17:00,
2013-03-16 01:22:00,59.2,28.6,29.99,NW,308,2.0,2.0,31,0.00,,,0.00,0.0,meteohub,2013-03-16 08:22:00,
2013-03-16 01:27:00,59.5,28.9,29.99,NW,308,1.0,2.0,31,0.00,,,0.00,0.0,meteohub,2013-03-16 08:27:00,
2013-03-16 01:32:00,59.5,28.0,29.98,NW,308,1.0,2.0,30,0.00,,,0.00,0.0,meteohub,2013-03-16 08:32:00,
2013-03-16 01:37:00,59.2,27.7,29.98,NW,308,0.0,2.0,30,0.00,,,0.00,0.0,meteohub,2013-03-16 08:37:00,
2013-03-16 01:42:00,58.8,28.2,29.98,NW,308,1.0,2.0,31,0.00,,,0.00,0.0,meteohub,2013-03-16 08:42:00,
2013-03-16 01:47:00,58.6,28.9,29.98,NW,308,1.0,1.0,32,0.00,,,0.00,0.0,meteohub,2013-03-16 08:47:00,
2013-03-16 01:52:00,58.5,27.9,29.98,NW,308,1.0,1.0,31,0.00,,,0.00,0.0,meteohub,2013-03-16 08:52:00,
2013-03-16 01:57:00,58.3,27.9,29.98,NW,308,0.0,1.0,31,0.00,,,0.00,0.0,meteohub,2013-03-16 08:57:00,
2013-03-16 02:02:00,57.9,27.5,29.98,NW,308,0.0,1.0,31,0.00,,,0.00,0.0,meteohub,2013-03-16 09:02:00,
2013-03-16 02:07:00,57.7,26.4,29.98,NW,308,0.0,1.0,30,0.00,,,0.00,0.0,meteohub,2013-03-16 09:07:00,
2013-03-16 02:12:00,57.6,27.1,29.97,NW,308,1.0,1.0,31,0.00,,,0.00,0.0,meteohub,2013-03-16 09:12:00,
2013-03-16 02:18:00,57.4,27.7,29.97,NW,308,1.0,1.0,32,0.00,,,0.00,0.0,meteohub,2013-03-16 09:18:00,
2013-03-16 02:23:00,57.0,27.5,29.97,NW,308,0.0,1.0,32,0.00,,,0.00,0.0,meteohub,2013-03-16 09:23:00,
2013-03-16 02:28:00,56.7,27.1,29.97,NW,308,1.0,2.0,32,0.00,,,0.00,0.0,meteohub,2013-03-16 09:28:00,
2013-03-16 02:33:00,56.1,26.6,29.97,NW,308,1.0,2.0,32,0.00,,,0.00,0.0,meteohub,2013-03-16 09:33:00,
2013-03-16 02:38:00,56.1,26.6,29.97,NW,308,1.0,2.0,32,0.00,,,0.00,0.0,meteohub,2013-03-16 09:38:00,
2013-03-16 02:43:00,56.3,26.1,29.96,NW,308,1.0,2.0,31,0.00,,,0.00,0.0,meteohub,2013-03-16 09:43:00,
2013-03-16 02:48:00,56.7,26.4,29.96,NW,308,1.0,2.0,31,0.00,,,0.00,0.0,meteohub,2013-03-16 09:48:00,
2013-03-16 02:53:00,57.2,26.1,29.96,NW,308,1.0,2.0,30,0.00,,,0.00,0.0,meteohub,2013-03-16 09:53:00,
2013-03-16 02:58:00,58.3,24.4,29.96,NW,308,0.0,2.0,27,0.00,,,0.00,0.0,meteohub,2013-03-16 09:58:00,
2013-03-16 03:03:00,58.6,24.8,29.96,NW,308,1.0,2.0,27,0.00,,,0.00,0.0,meteohub,2013-03-16 10:03:00,
2013-03-16 03:08:00,58.5,26.2,29.96,NW,308,1.0,2.0,29,0.00,,,0.00,0.0,meteohub,2013-03-16 10:08:00,
2013-03-16 03:13:00,58.6,24.8,29.96,NW,308,1.0,2.0,27,0.00,,,0.00,0.0,meteohub,2013-03-16 10:13:00,
2013-03-16 03:18:00,59.5,24.6,29.96,NW,308,1.0,2.0,26,0.00,,,0.00,0.0,meteohub,2013-03-16 10:18:00,
2013-03-16 03:23:00,59.5,24.6,29.96,NW,308,1.0,2.0,26,0.00,,,0.00,0.0,meteohub,2013-03-16 10:23:00,
2013-03-16 03:28:00,59.4,26.2,29.96,NW,308,1.0,2.0,28,0.00,,,0.00,0.0,meteohub,2013-03-16 10:28:00,
2013-03-16 03:33:00,58.5,25.5,29.95,NW,308,0.0,2.0,28,0.00,,,0.00,0.0,meteohub,2013-03-16 10:33:00,
2013-03-16 03:38:00,58.3,25.3,29.95,NW,308,1.0,2.0,28,0.00,,,0.00,0.0,meteohub,2013-03-16 10:38:00,
2013-03-16 03:43:00,57.9,25.9,29.95,NW,308,0.0,2.0,29,0.00,,,0.00,0.0,meteohub,2013-03-16 10:43:00,
2013-03-16 03:48:00,57.7,24.8,29.95,NW,308,1.0,2.0,28,0.00,,,0.00,0.0,meteohub,2013-03-16 10:48:00,
2013-03-16 03:53:00,57.2,26.1,29.95,NW,308,1.0,2.0,30,0.00,,,0.00,0.0,meteohub,2013-03-16 10:53:00,
2013-03-16 03:58:00,56.7,24.8,29.95,NW,308,1.0,2.0,29,0.00,,,0.00,0.0,meteohub,2013-03-16 10:58:00,
2013-03-16 04:03:00,56.5,26.2,29.95,NW,308,0.0,2.0,31,0.00,,,0.00,0.0,meteohub,2013-03-16 11:03:00,
2013-03-16 04:08:00,55.9,26.4,29.95,NW,308,0.0,2.0,32,0.00,,,0.00,0.0,meteohub,2013-03-16 11:08:00,
2013-03-16 04:13:00,55.0,25.0,29.95,NW,308,0.0,1.0,31,0.00,,,0.00,0.0,meteohub,2013-03-16 11:13:00,
2013-03-16 04:18:00,55.0,24.1,29.95,NW,308,1.0,1.0,30,0.00,,,0.00,0.0,meteohub,2013-03-16 11:18:00,
2013-03-16 04:23:00,54.9,25.5,29.95,NW,308,0.0,2.0,32,0.00,,,0.00,0.0,meteohub,2013-03-16 11:23:00,
2013-03-16 04:28:00,54.7,24.6,29.95,NW,308,1.0,2.0,31,0.00,,,0.00,0.0,meteohub,2013-03-16 11:28:00,
2013-03-16 04:33:00,54.3,25.2,29.95,NW,308,0.0,2.0,32,0.00,,,0.00,0.0,meteohub,2013-03-16 11:33:00,
2013-03-16 04:38:00,54.1,27.1,29.95,NW,308,0.0,1.0,35,0.00,,,0.00,0.0,meteohub,2013-03-16 11:38:00,
2013-03-16 04:43:00,53.8,26.8,29.95,NW,308,0.0,1.0,35,0.00,,,0.00,0.0,meteohub,2013-03-16 11:43:00,
2013-03-16 04:48:00,53.2,26.2,29.95,NW,308,0.0,1.0,35,0.00,,,0.00,0.0,meteohub,2013-03-16 11:48:00,
2013-03-16 04:53:00,52.9,25.3,29.94,NW,308,1.0,1.0,34,0.00,,,0.00,0.0,meteohub,2013-03-16 11:53:00,
2013-03-16 04:58:00,52.3,26.8,29.94,NW,308,0.0,1.0,37,0.00,,,0.00,0.0,meteohub,2013-03-16 11:58:00,
2013-03-16 05:03:00,52.2,26.1,29.94,NW,308,1.0,2.0,36,0.00,,,0.00,0.0,meteohub,2013-03-16 12:03:00,
2013-03-16 05:08:00,52.2,24.6,29.94,NW,308,0.0,2.0,34,0.00,,,0.00,0.0,meteohub,2013-03-16 12:08:00,
2013-03-16 05:13:00,52.0,25.2,29.95,NW,308,1.0,2.0,35,0.00,,,0.00,0.0,meteohub,2013-03-16 12:13:00,
2013-03-16 05:18:00,52.0,25.2,29.94,NW,308,2.0,2.0,35,0.00,,,0.00,0.0,meteohub,2013-03-16 12:18:00,
2013-03-16 05:23:00,51.8,26.4,29.94,NW,308,1.0,2.0,37,0.00,,,0.00,0.0,meteohub,2013-03-16 12:23:00,
2013-03-16 05:29:00,51.3,25.9,29.94,NW,308,0.0,2.0,37,0.00,,,0.00,0.0,meteohub,2013-03-16 12:29:00,
2013-03-16 05:34:00,50.7,26.1,29.94,NW,308,0.0,2.0,38,0.00,,,0.00,0.0,meteohub,2013-03-16 12:34:00,
2013-03-16 05:39:00,50.5,25.9,29.94,NW,308,0.0,2.0,38,0.00,,,0.00,0.0,meteohub,2013-03-16 12:39:00,
2013-03-16 05:44:00,50.5,26.4,29.94,NW,308,0.0,2.0,39,0.00,,,0.00,0.0,meteohub,2013-03-16 12:44:00,
2013-03-16 05:49:00,50.4,25.7,29.94,NW,308,1.0,2.0,38,0.00,,,0.00,0.0,meteohub,2013-03-16 12:49:00,
2013-03-16 05:54:00,50.4,26.4,29.94,NW,308,0.0,2.0,39,0.00,,,0.00,0.0,meteohub,2013-03-16 12:54:00,
2013-03-16 05:59:00,50.2,26.2,29.94,NW,308,1.0,1.0,39,0.00,,,0.00,0.0,meteohub,2013-03-16 12:59:00,
2013-03-16 06:04:00,49.8,25.9,29.95,NW,308,0.0,1.0,39,0.00,,,0.00,0.0,meteohub,2013-03-16 13:04:00,
2013-03-16 06:09:00,49.6,26.2,29.95,NW,308,1.0,1.0,40,0.00,,,0.00,0.0,meteohub,2013-03-16 13:09:00,
2013-03-16 06:14:00,49.5,26.1,29.95,NW,308,1.0,1.0,40,0.00,,,0.00,0.0,meteohub,2013-03-16 13:14:00,
2013-03-16 06:19:00,49.3,27.1,29.95,NW,308,1.0,2.0,42,0.00,,,0.00,0.0,meteohub,2013-03-16 13:19:00,
2013-03-16 06:24:00,48.9,26.8,29.95,NW,308,0.0,2.0,42,0.00,,,0.00,0.0,meteohub,2013-03-16 13:24:00,
2013-03-16 06:29:00,48.7,26.1,29.95,NW,308,0.0,2.0,41,0.00,,,0.00,5.0,meteohub,2013-03-16 13:29:00,
2013-03-16 06:34:00,48.7,27.3,29.95,NW,308,1.0,1.0,43,0.00,,,0.00,7.0,meteohub,2013-03-16 13:34:00,
2013-03-16 06:39:00,48.4,25.7,29.95,NW,308,2.0,2.0,41,0.00,,,0.00,11.0,meteohub,2013-03-16 13:39:00,
2013-03-16 06:44:00,48.7,26.1,29.95,NW,308,0.0,2.0,41,0.00,,,0.00,12.0,meteohub,2013-03-16 13:44:00,
2013-03-16 06:49:00,48.9,25.7,29.95,NW,308,1.0,2.0,40,0.00,,,0.00,14.0,meteohub,2013-03-16 13:49:00,
2013-03-16 06:54:00,49.5,26.8,29.95,NW,308,1.0,2.0,41,0.00,,,0.00,18.0,meteohub,2013-03-16 13:54:00,
2013-03-16 06:59:00,49.5,27.3,29.95,NW,308,0.0,2.0,42,0.00,,,0.00,33.0,meteohub,2013-03-16 13:59:00,
2013-03-16 07:04:00,49.8,27.1,29.95,NW,308,1.0,2.0,41,0.00,,,0.00,49.0,meteohub,2013-03-16 14:04:00,
2013-03-16 07:09:00,51.1,28.8,29.95,NW,308,1.0,2.0,42,0.00,,,0.00,67.0,meteohub,2013-03-16 14:09:00,
2013-03-16 07:14:00,52.0,25.2,29.95,NW,311,1.0,2.0,35,0.00,,,0.00,86.0,meteohub,2013-03-16 14:14:00,
2013-03-16 07:19:00,54.1,26.4,29.95,NW,311,0.0,3.0,34,0.00,,,0.00,107.0,meteohub,2013-03-16 14:19:00,
2013-03-16 07:24:00,56.1,28.8,29.95,NW,311,0.0,3.0,35,0.00,,,0.00,127.0,meteohub,2013-03-16 14:24:00,
2013-03-16 07:29:00,57.7,28.0,29.95,NW,311,0.0,3.0,32,0.00,,,0.00,151.0,meteohub,2013-03-16 14:29:00,
2013-03-16 07:34:00,59.5,28.0,29.95,NW,311,0.0,2.0,30,0.00,,,0.00,176.0,meteohub,2013-03-16 14:34:00,
2013-03-16 07:39:00,61.3,29.7,29.96,NW,311,1.0,2.0,30,0.00,,,0.00,200.0,meteohub,2013-03-16 14:39:00,
2013-03-16 07:44:00,62.4,28.9,29.96,NW,311,0.0,2.0,28,0.00,,,0.00,223.0,meteohub,2013-03-16 14:44:00,
2013-03-16 07:49:00,63.7,29.1,29.96,NW,311,2.0,2.0,27,0.00,,,0.00,244.0,meteohub,2013-03-16 14:49:00,
2013-03-16 07:54:00,64.2,27.7,29.96,WNW,292,1.0,2.0,25,0.00,,,0.00,262.0,meteohub,2013-03-16 14:54:00,
2013-03-16 07:59:00,65.3,28.6,29.96,WNW,292,1.0,2.0,25,0.00,,,0.00,281.0,meteohub,2013-03-16 14:59:00,
2013-03-16 08:04:00,65.8,28.9,29.96,WSW,241,0.0,2.0,25,0.00,,,0.00,316.0,meteohub,2013-03-16 15:04:00,
2013-03-16 08:09:00,67.1,30.0,29.96,WSW,241,0.0,2.0,25,0.00,,,0.00,318.0,meteohub,2013-03-16 15:09:00,
2013-03-16 08:14:00,68.4,29.1,29.96,WSW,241,1.0,2.0,23,0.00,,,0.00,338.0,meteohub,2013-03-16 15:14:00,
2013-03-16 08:19:00,69.6,30.2,29.96,WSW,241,1.0,2.0,23,0.00,,,0.00,353.0,meteohub,2013-03-16 15:19:00,
2013-03-16 08:24:00,71.2,29.3,29.96,WSW,241,1.0,1.0,21,0.00,,,0.00,376.0,meteohub,2013-03-16 15:24:00,
2013-03-16 08:29:00,72.0,28.8,29.96,SSE,147,1.0,1.0,20,0.00,,,0.00,394.0,meteohub,2013-03-16 15:29:00,
2013-03-16 08:34:00,72.5,26.6,29.96,SSE,148,0.0,3.0,18,0.00,,,0.00,422.0,meteohub,2013-03-16 15:34:00,
2013-03-16 08:39:00,73.6,21.4,29.96,SSE,151,2.0,3.0,14,0.00,,,0.00,446.0,meteohub,2013-03-16 15:39:00,
2013-03-16 08:45:00,74.3,20.3,29.96,WSW,256,1.0,3.0,13,0.00,,,0.00,471.0,meteohub,2013-03-16 15:45:00,
2013-03-16 08:50:00,74.7,16.7,29.96,WSW,237,2.0,4.0,11,0.00,,,0.00,483.0,meteohub,2013-03-16 15:50:00,
2013-03-16 08:55:00,75.0,16.9,29.97,SW,236,1.0,4.0,11,0.00,,,0.00,327.0,meteohub,2013-03-16 15:55:00,
2013-03-16 09:00:00,75.6,17.4,29.97,SW,236,0.0,4.0,11,0.00,,,0.00,512.0,meteohub,2013-03-16 16:00:00,
2013-03-16 09:05:00,76.3,18.0,29.97,WNW,284,0.0,3.0,11,0.00,,,0.00,527.0,meteohub,2013-03-16 16:05:00,
2013-03-16 09:10:00,76.6,16.0,29.97,WNW,284,1.0,4.0,10,0.00,,,0.00,545.0,meteohub,2013-03-16 16:10:00,
2013-03-16 09:15:00,77.4,16.5,29.97,WNW,284,2.0,4.0,10,0.00,,,0.00,561.0,meteohub,2013-03-16 16:15:00,
2013-03-16 09:20:00,77.2,18.7,29.97,WSW,257,4.0,4.0,11,0.00,,,0.00,578.0,meteohub,2013-03-16 16:20:00,
2013-03-16 09:25:00,77.0,16.3,29.97,SSW,211,2.0,4.0,10,0.00,,,0.00,596.0,meteohub,2013-03-16 16:25:00,
2013-03-16 09:30:00,77.2,16.3,29.97,West,279,2.0,4.0,10,0.00,,,0.00,612.0,meteohub,2013-03-16 16:30:00,
2013-03-16 09:35:00,77.4,16.5,29.97,West,263,1.0,4.0,10,0.00,,,0.00,624.0,meteohub,2013-03-16 16:35:00,
2013-03-16 09:40:00,77.7,14.4,29.96,SSW,196,2.0,4.0,9,0.00,,,0.00,640.0,meteohub,2013-03-16 16:40:00,
2013-03-16 09:45:00,78.3,17.2,29.96,SE,138,1.0,4.0,10,0.00,,,0.00,654.0,meteohub,2013-03-16 16:45:00,
2013-03-16 09:50:00,78.6,15.1,29.96,SW,221,2.0,4.0,9,0.00,,,0.00,668.0,meteohub,2013-03-16 16:50:00,
2013-03-16 09:55:00,78.8,17.6,29.96,SSW,199,2.0,4.0,10,0.00,,,0.00,684.0,meteohub,2013-03-16 16:55:00,
2013-03-16 10:00:00,79.3,15.6,29.96,WSW,248,2.0,4.0,9,0.00,,,0.00,701.0,meteohub,2013-03-16 17:00:00,
2013-03-16 10:05:00,79.3,15.6,29.96,West,272,2.0,4.0,9,0.00,,,0.00,714.0,meteohub,2013-03-16 17:05:00,
2013-03-16 10:10:00,79.3,15.6,29.96,SSW,210,2.0,5.0,9,0.00,,,0.00,735.0,meteohub,2013-03-16 17:10:00,
2013-03-16 10:15:00,79.5,15.8,29.96,WSW,253,1.0,5.0,9,0.00,,,0.00,758.0,meteohub,2013-03-16 17:15:00,
2013-03-16 10:20:00,80.2,16.3,29.96,SW,229,0.0,5.0,9,0.00,,,0.00,777.0,meteohub,2013-03-16 17:20:00,
2013-03-16 10:25:00,80.6,16.5,29.96,WSW,244,3.0,8.0,9,0.00,,,0.00,816.0,meteohub,2013-03-16 17:25:00,
2013-03-16 10:30:00,80.4,16.3,29.95,West,264,2.0,8.0,9,0.00,,,0.00,905.0,meteohub,2013-03-16 17:30:00,
2013-03-16 10:31:00,80.2,16.3,29.95,SW,226,3.0,8.0,9,0.00,,,0.00,925.0,meteohub,2013-03-16 17:31:00,
2013-03-16 10:37:00,80.2,16.3,29.95,SSW,201,5.0,8.0,9,0.00,,,0.00,821.0,meteohub,2013-03-16 17:37:00,
2013-03-16 10:46:00,80.6,16.5,29.95,SW,222,1.0,5.0,9,0.00,,,0.00,666.0,meteohub,2013-03-16 17:46:00,
2013-03-16 10:51:00,81.0,16.9,29.94,SSW,202,5.0,5.0,9,0.00,,,0.00,647.0,meteohub,2013-03-16 17:51:00,
2013-03-16 10:56:00,81.0,16.9,29.94,SW,218,3.0,5.0,9,0.00,,,0.00,482.0,meteohub,2013-03-16 17:56:00,
2013-03-16 11:01:00,80.8,16.7,29.94,WSW,257,3.0,6.0,9,0.00,,,0.00,687.0,meteohub,2013-03-16 18:01:00,
2013-03-16 11:06:00,80.2,18.7,29.94,West,260,0.0,6.0,10,0.00,,,0.00,568.0,meteohub,2013-03-16 18:06:00,
2013-03-16 11:12:00,80.4,18.9,29.94,South,180,2.0,5.0,10,0.00,,,0.00,464.0,meteohub,2013-03-16 18:12:00,
2013-03-16 11:17:00,81.0,19.2,29.94,WNW,299,6.0,6.0,10,0.00,,,0.00,729.0,meteohub,2013-03-16 18:17:00,
2013-03-16 11:22:00,81.0,19.2,29.94,NW,309,0.0,6.0,10,0.00,,,0.00,979.0,meteohub,2013-03-16 18:22:00,
2013-03-16 11:27:00,81.5,17.2,29.94,SW,225,3.0,6.0,9,0.00,,,0.00,918.0,meteohub,2013-03-16 18:27:00,
2013-03-16 11:32:00,82.0,20.1,29.94,WNW,295,2.0,6.0,10,0.00,,,0.00,786.0,meteohub,2013-03-16 18:32:00,
2013-03-16 11:37:00,82.0,17.6,29.93,WSW,240,0.0,5.0,9,0.00,,,0.00,703.0,meteohub,2013-03-16 18:37:00,
2013-03-16 11:42:00,82.2,20.3,29.93,WSW,242,3.0,5.0,10,0.00,,,0.00,1072.0,meteohub,2013-03-16 18:42:00,
2013-03-16 11:47:00,82.9,20.8,29.92,SSW,211,3.0,6.0,10,0.00,,,0.00,1179.0,meteohub,2013-03-16 18:47:00,
2013-03-16 11:52:00,83.1,20.8,29.92,SW,228,3.0,6.0,10,0.00,,,0.00,522.0,meteohub,2013-03-16 18:52:00,
2013-03-16 11:57:00,82.6,20.5,29.92,West,259,3.0,6.0,10,0.00,,,0.00,568.0,meteohub,2013-03-16 18:57:00,
2013-03-16 12:02:00,82.6,20.5,29.92,WSW,238,2.0,9.0,10,0.00,,,0.00,610.0,meteohub,2013-03-16 19:02:00,
2013-03-16 12:07:00,82.4,20.3,29.91,West,259,2.0,9.0,10,0.00,,,0.00,701.0,meteohub,2013-03-16 19:07:00,
2013-03-16 12:12:00,82.6,20.5,29.91,West,267,2.0,8.0,10,0.00,,,0.00,615.0,meteohub,2013-03-16 19:12:00,
2013-03-16 12:17:00,82.8,20.7,29.91,West,262,0.0,7.0,10,0.00,,,0.00,798.0,meteohub,2013-03-16 19:17:00,
2013-03-16 12:22:00,83.1,20.8,29.91,WSW,257,4.0,7.0,10,0.00,,,0.00,671.0,meteohub,2013-03-16 19:22:00,
2013-03-16 12:27:00,83.1,18.5,29.91,West,271,1.0,7.0,9,0.00,,,0.00,754.0,meteohub,2013-03-16 19:27:00,
2013-03-16 12:32:00,83.7,18.9,29.90,WSW,251,5.0,7.0,9,0.00,,,0.00,784.0,meteohub,2013-03-16 19:32:00,
2013-03-16 12:37:00,83.8,19.0,29.90,SSW,205,6.0,10.0,9,0.00,,,0.00,784.0,meteohub,2013-03-16 19:37:00,
2013-03-16 12:42:00,84.0,19.0,29.90,SW,235,5.0,10.0,9,0.00,,,0.00,761.0,meteohub,2013-03-16 19:42:00,
2013-03-16 12:47:00,83.8,19.0,29.89,WSW,246,3.0,10.0,9,0.00,,,0.00,918.0,meteohub,2013-03-16 19:47:00,
2013-03-16 12:52:00,84.0,19.0,29.89,West,276,2.0,10.0,9,0.00,,,0.00,701.0,meteohub,2013-03-16 19:52:00,
2013-03-16 12:57:00,84.0,19.0,29.88,WSW,258,4.0,10.0,9,0.00,,,0.00,650.0,meteohub,2013-03-16 19:57:00,
2013-03-16 13:02:00,84.0,19.0,29.88,West,263,1.0,8.0,9,0.00,,,0.00,591.0,meteohub,2013-03-16 20:02:00,
2013-03-16 13:07:00,84.4,19.4,29.88,SW,214,2.0,8.0,9,0.00,,,0.00,580.0,meteohub,2013-03-16 20:07:00,
2013-03-16 13:12:00,84.2,19.2,29.88,West,262,4.0,8.0,9,0.00,,,0.00,455.0,meteohub,2013-03-16 20:12:00,
2013-03-16 13:17:00,84.4,19.4,29.87,West,279,4.0,9.0,9,0.00,,,0.00,612.0,meteohub,2013-03-16 20:17:00,
2013-03-16 13:22:00,84.9,19.8,29.87,SSW,212,2.0,9.0,9,0.00,,,0.00,1032.0,meteohub,2013-03-16 20:22:00,
2013-03-16 13:27:00,85.1,19.9,29.86,WSW,254,3.0,10.0,9,0.00,,,0.00,865.0,meteohub,2013-03-16 20:27:00,
2013-03-16 13:33:00,85.5,20.1,29.86,SW,227,5.0,10.0,9,0.00,,,0.00,670.0,meteohub,2013-03-16 20:33:00,
2013-03-16 13:38:00,85.6,17.6,29.86,WSW,240,5.0,10.0,8,0.00,,,0.00,911.0,meteohub,2013-03-16 20:38:00,
2013-03-16 13:43:00,86.2,18.0,29.85,WSW,254,5.0,9.0,8,0.00,,,0.00,707.0,meteohub,2013-03-16 20:43:00,
2013-03-16 13:48:00,85.6,17.6,29.85,NW,317,3.0,9.0,8,0.00,,,0.00,628.0,meteohub,2013-03-16 20:48:00,
2013-03-16 13:53:00,86.2,18.0,29.84,South,177,3.0,10.0,8,0.00,,,0.00,946.0,meteohub,2013-03-16 20:53:00,
2013-03-16 13:58:00,86.9,18.5,29.84,WSW,246,6.0,10.0,8,0.00,,,0.00,919.0,meteohub,2013-03-16 20:58:00,
2013-03-16 14:03:00,86.7,15.3,29.84,SSW,194,3.0,10.0,7,0.00,,,0.00,656.0,meteohub,2013-03-16 21:03:00,
2013-03-16 14:08:00,87.1,18.7,29.83,West,264,4.0,10.0,8,0.00,,,0.00,780.0,meteohub,2013-03-16 21:08:00,
2013-03-16 14:13:00,87.3,15.6,29.83,SW,236,4.0,10.0,7,0.00,,,0.00,724.0,meteohub,2013-03-16 21:13:00,
2013-03-16 14:18:00,87.6,19.0,29.83,NW,325,6.0,10.0,8,0.00,,,0.00,605.0,meteohub,2013-03-16 21:18:00,
2013-03-16 14:23:00,87.3,15.6,29.83,WNW,283,6.0,10.0,7,0.00,,,0.00,861.0,meteohub,2013-03-16 21:23:00,
2013-03-16 14:28:00,87.6,16.0,29.82,WSW,239,6.0,10.0,7,0.00,,,0.00,842.0,meteohub,2013-03-16 21:28:00,
2013-03-16 14:33:00,87.4,15.8,29.82,WNW,288,4.0,10.0,7,0.00,,,0.00,698.0,meteohub,2013-03-16 21:33:00,
2013-03-16 14:39:00,87.1,15.6,29.82,WSW,248,5.0,10.0,7,0.00,,,0.00,724.0,meteohub,2013-03-16 21:39:00,
2013-03-16 14:44:00,87.8,12.6,29.81,WSW,258,4.0,11.0,6,0.00,,,0.00,823.0,meteohub,2013-03-16 21:44:00,
2013-03-16 14:49:00,88.0,8.6,29.81,NW,324,8.0,11.0,5,0.00,,,0.00,814.0,meteohub,2013-03-16 21:49:00,
2013-03-16 14:54:00,87.8,8.4,29.81,WSW,239,6.0,20.0,5,0.00,,,0.00,657.0,meteohub,2013-03-16 21:54:00,
2013-03-16 14:59:00,87.6,3.6,29.81,WSW,242,4.0,20.0,4,0.00,,,0.00,722.0,meteohub,2013-03-16 21:59:00,
2013-03-16 15:04:00,88.0,8.6,29.81,West,269,5.0,20.0,5,0.00,,,0.00,758.0,meteohub,2013-03-16 22:04:00,
2013-03-16 15:09:00,88.2,3.9,29.81,SW,219,7.0,16.0,4,0.00,,,0.00,701.0,meteohub,2013-03-16 22:09:00,
2013-03-16 15:14:00,88.2,8.8,29.80,SW,221,8.0,12.0,5,0.00,,,0.00,698.0,meteohub,2013-03-16 22:14:00,
2013-03-16 15:19:00,88.3,8.8,29.80,West,277,3.0,14.0,5,0.00,,,0.00,680.0,meteohub,2013-03-16 22:19:00,
2013-03-16 15:24:00,88.2,8.8,29.80,SSW,205,7.0,15.0,5,0.00,,,0.00,668.0,meteohub,2013-03-16 22:24:00,
2013-03-16 15:29:00,88.3,8.8,29.80,West,259,8.0,15.0,5,0.00,,,0.00,650.0,meteohub,2013-03-16 22:29:00,
2013-03-16 15:34:00,88.5,9.0,29.80,WSW,241,6.0,15.0,5,0.00,,,0.00,633.0,meteohub,2013-03-16 22:34:00,
2013-03-16 15:39:00,88.2,8.8,29.80,WSW,253,8.0,15.0,5,0.00,,,0.00,617.0,meteohub,2013-03-16 22:39:00,
2013-03-16 15:44:00,88.2,3.9,29.80,West,264,2.0,15.0,4,0.00,,,0.00,606.0,meteohub,2013-03-16 22:44:00,
2013-03-16 15:49:00,88.2,3.9,29.79,SW,227,9.0,14.0,4,0.00,,,0.00,589.0,meteohub,2013-03-16 22:49:00,
2013-03-16 15:54:00,88.0,-2.4,29.79,SW,232,10.0,15.0,3,0.00,,,0.00,573.0,meteohub,2013-03-16 22:54:00,
2013-03-16 15:59:00,88.0,3.7,29.79,WSW,239,5.0,15.0,4,0.00,,,0.00,554.0,meteohub,2013-03-16 22:59:00,
2013-03-16 16:04:00,88.2,3.9,29.78,SW,223,7.0,15.0,4,0.00,,,0.00,534.0,meteohub,2013-03-16 23:04:00,
2013-03-16 16:09:00,87.6,3.6,29.79,WNW,285,7.0,17.0,4,0.00,,,0.00,519.0,meteohub,2013-03-16 23:09:00,
2013-03-16 16:14:00,87.4,3.4,29.79,SW,235,3.0,17.0,4,0.00,,,0.00,499.0,meteohub,2013-03-16 23:14:00,
2013-03-16 16:19:00,87.4,3.4,29.79,NW,306,5.0,17.0,4,0.00,,,0.00,480.0,meteohub,2013-03-16 23:19:00,
2013-03-16 16:24:00,87.4,3.4,29.79,West,263,6.0,15.0,4,0.00,,,0.00,462.0,meteohub,2013-03-16 23:24:00,
2013-03-16 16:29:00,87.1,8.1,29.79,WSW,247,13.0,13.0,5,0.00,,,0.00,443.0,meteohub,2013-03-16 23:29:00,
2013-03-16 16:34:00,87.1,3.0,29.79,WNW,291,7.0,13.0,4,0.00,,,0.00,425.0,meteohub,2013-03-16 23:34:00,
2013-03-16 16:39:00,86.5,2.7,29.79,West,277,7.0,16.0,4,0.00,,,0.00,406.0,meteohub,2013-03-16 23:39:00,
2013-03-16 16:44:00,86.5,2.7,29.79,WNW,282,11.0,19.0,4,0.00,,,0.00,387.0,meteohub,2013-03-16 23:44:00,
2013-03-16 16:49:00,86.5,2.7,29.79,WSW,250,5.0,19.0,4,0.00,,,0.00,367.0,meteohub,2013-03-16 23:49:00,
2013-03-16 16:54:00,86.4,2.7,29.79,WSW,253,5.0,19.0,4,0.00,,,0.00,346.0,meteohub,2013-03-16 23:54:00,
2013-03-16 16:59:00,86.4,2.7,29.79,SSW,195,8.0,16.0,4,0.00,,,0.00,327.0,meteohub,2013-03-16 23:59:00,
2013-03-16 17:04:00,85.6,7.0,29.79,West,269,9.0,16.0,5,0.00,,,0.00,306.0,meteohub,2013-03-17 00:04:00,
2013-03-16 17:09:00,85.5,6.8,29.79,South,178,8.0,16.0,5,0.00,,,0.00,283.0,meteohub,2013-03-17 00:09:00,
2013-03-16 17:14:00,85.5,6.8,29.79,WSW,248,4.0,17.0,5,0.00,,,0.00,262.0,meteohub,2013-03-17 00:14:00,
2013-03-16 17:20:00,85.5,6.8,29.79,WSW,250,10.0,17.0,5,0.00,,,0.00,237.0,meteohub,2013-03-17 00:20:00,
2013-03-16 17:25:00,84.9,1.6,29.79,SW,235,9.0,17.0,4,0.00,,,0.00,218.0,meteohub,2013-03-17 00:25:00,
2013-03-16 17:30:00,84.7,6.3,29.79,West,277,11.0,16.0,5,0.00,,,0.00,193.0,meteohub,2013-03-17 00:30:00,
2013-03-16 17:35:00,84.4,6.1,29.79,WSW,240,8.0,14.0,5,0.00,,,0.00,169.0,meteohub,2013-03-17 00:35:00,
2013-03-16 17:40:00,83.8,5.7,29.79,WSW,242,5.0,15.0,5,0.00,,,0.00,144.0,meteohub,2013-03-17 00:40:00,
2013-03-16 17:45:00,83.5,5.4,29.79,West,267,2.0,15.0,5,0.00,,,0.00,120.0,meteohub,2013-03-17 00:45:00,
2013-03-16 17:50:00,83.1,5.2,29.80,West,259,4.0,15.0,5,0.00,,,0.00,97.0,meteohub,2013-03-17 00:50:00,
2013-03-16 17:55:00,82.6,4.8,29.80,WSW,251,10.0,16.0,5,0.00,,,0.00,77.0,meteohub,2013-03-17 00:55:00,
2013-03-16 18:00:00,82.2,8.6,29.81,West,265,5.0,16.0,6,0.00,,,0.00,60.0,meteohub,2013-03-17 01:00:00,
2013-03-16 18:05:00,81.9,8.2,29.81,WSW,248,7.0,16.0,6,0.00,,,0.00,44.0,meteohub,2013-03-17 01:05:00,
2013-03-16 18:10:00,81.7,8.2,29.81,WNW,291,4.0,16.0,6,0.00,,,0.00,33.0,meteohub,2013-03-17 01:10:00,
2013-03-16 18:15:00,81.1,7.9,29.81,WSW,254,10.0,17.0,6,0.00,,,0.00,21.0,meteohub,2013-03-17 01:15:00,
2013-03-16 18:20:00,80.8,10.9,29.81,West,272,7.0,17.0,7,0.00,,,0.00,16.0,meteohub,2013-03-17 01:20:00,
2013-03-16 18:25:00,80.1,10.4,29.81,WSW,254,5.0,16.0,7,0.00,,,0.00,12.0,meteohub,2013-03-17 01:25:00,
2013-03-16 18:30:00,79.9,10.2,29.82,West,267,5.0,16.0,7,0.00,,,0.00,7.0,meteohub,2013-03-17 01:30:00,
2013-03-16 18:35:00,79.3,9.9,29.82,WSW,252,9.0,16.0,7,0.00,,,0.00,5.0,meteohub,2013-03-17 01:35:00,
2013-03-16 18:40:00,79.2,9.9,29.82,West,266,7.0,14.0,7,0.00,,,0.00,0.0,meteohub,2013-03-17 01:40:00,
2013-03-16 18:45:00,78.8,12.6,29.82,WNW,303,5.0,13.0,8,0.00,,,0.00,0.0,meteohub,2013-03-17 01:45:00,
2013-03-16 18:50:00,78.4,12.2,29.82,WNW,284,4.0,16.0,8,0.00,,,0.00,0.0,meteohub,2013-03-17 01:50:00,
2013-03-16 18:55:00,78.1,14.7,29.83,West,268,2.0,16.0,9,0.00,,,0.00,0.0,meteohub,2013-03-17 01:55:00,
2013-03-16 19:00:00,77.5,14.2,29.83,West,260,8.0,16.0,9,0.00,,,0.00,0.0,meteohub,2013-03-17 02:00:00,
2013-03-16 19:05:00,77.4,14.2,29.83,West,267,4.0,13.0,9,0.00,,,0.00,0.0,meteohub,2013-03-17 02:05:00,
2013-03-16 19:10:00,77.2,14.0,29.83,West,262,9.0,13.0,9,0.00,,,0.00,0.0,meteohub,2013-03-17 02:10:00,
2013-03-16 19:15:00,76.6,16.0,29.83,West,270,4.0,11.0,10,0.00,,,0.00,0.0,meteohub,2013-03-17 02:15:00,
2013-03-16 19:20:00,76.3,15.6,29.83,WSW,257,8.0,10.0,10,0.00,,,0.00,0.0,meteohub,2013-03-17 02:20:00,
2013-03-16 19:25:00,76.3,15.6,29.83,WSW,247,6.0,11.0,10,0.00,,,0.00,0.0,meteohub,2013-03-17 02:25:00,
2013-03-16 19:30:00,75.7,15.3,29.84,West,263,2.0,11.0,10,0.00,,,0.00,0.0,meteohub,2013-03-17 02:30:00,
2013-03-16 19:35:00,75.4,15.1,29.84,West,263,3.0,11.0,10,0.00,,,0.00,0.0,meteohub,2013-03-17 02:35:00,
2013-03-16 19:40:00,75.0,16.9,29.84,WNW,282,8.0,9.0,11,0.00,,,0.00,0.0,meteohub,2013-03-17 02:40:00,
2013-03-16 19:45:00,74.7,16.7,29.84,West,263,4.0,9.0,11,0.00,,,0.00,0.0,meteohub,2013-03-17 02:45:00,
2013-03-16 19:50:00,73.9,16.2,29.84,West,265,6.0,8.0,11,0.00,,,0.00,0.0,meteohub,2013-03-17 02:50:00,
2013-03-16 19:55:00,73.8,16.0,29.84,West,265,2.0,8.0,11,0.00,,,0.00,0.0,meteohub,2013-03-17 02:55:00,
2013-03-16 20:00:00,73.2,15.6,29.84,West,262,1.0,8.0,11,0.00,,,0.00,0.0,meteohub,2013-03-17 03:00:00,
2013-03-16 20:05:00,73.0,17.4,29.85,WSW,257,4.0,8.0,12,0.00,,,0.00,0.0,meteohub,2013-03-17 03:05:00,
2013-03-16 20:10:00,72.9,17.2,29.85,WSW,257,3.0,6.0,12,0.00,,,0.00,0.0,meteohub,2013-03-17 03:10:00,
2013-03-16 20:15:00,72.5,17.1,29.85,West,269,3.0,6.0,12,0.00,,,0.00,0.0,meteohub,2013-03-17 03:15:00,
2013-03-16 20:20:00,73.2,17.6,29.85,WNW,285,4.0,9.0,12,0.00,,,0.00,0.0,meteohub,2013-03-17 03:20:00,
2013-03-16 20:25:00,73.8,18.0,29.86,West,278,7.0,9.0,12,0.00,,,0.00,0.0,meteohub,2013-03-17 03:25:00,
2013-03-16 20:30:00,73.6,17.8,29.86,WSW,257,5.0,9.0,12,0.00,,,0.00,0.0,meteohub,2013-03-17 03:30:00,
2013-03-16 20:35:00,73.2,17.6,29.86,SW,235,3.0,10.0,12,0.00,,,0.00,0.0,meteohub,2013-03-17 03:35:00,
2013-03-16 20:40:00,73.0,17.4,29.86,West,281,5.0,10.0,12,0.00,,,0.00,0.0,meteohub,2013-03-17 03:40:00,
2013-03-16 20:45:00,72.7,19.0,29.86,West,264,1.0,7.0,13,0.00,,,0.00,0.0,meteohub,2013-03-17 03:45:00,
2013-03-16 20:50:00,72.3,18.7,29.86,West,271,2.0,6.0,13,0.00,,,0.00,0.0,meteohub,2013-03-17 03:50:00,
2013-03-16 20:55:00,72.0,20.1,29.87,West,273,1.0,6.0,14,0.00,,,0.00,0.0,meteohub,2013-03-17 03:55:00,
2013-03-16 21:00:00,71.6,19.9,29.87,West,273,2.0,6.0,14,0.00,,,0.00,0.0,meteohub,2013-03-17 04:00:00,
2013-03-16 21:05:00,71.1,21.0,29.87,WSW,257,1.0,4.0,15,0.00,,,0.00,0.0,meteohub,2013-03-17 04:05:00,
2013-03-16 21:10:00,70.5,20.7,29.87,West,265,2.0,3.0,15,0.00,,,0.00,0.0,meteohub,2013-03-17 04:10:00,
2013-03-16 21:15:00,70.3,22.1,29.88,West,269,0.0,3.0,16,0.00,,,0.00,0.0,meteohub,2013-03-17 04:15:00,
2013-03-16 21:20:00,69.8,21.6,29.88,West,269,0.0,3.0,16,0.00,,,0.00,0.0,meteohub,2013-03-17 04:20:00,
2013-03-16 21:25:00,69.3,21.2,29.88,West,269,1.0,3.0,16,0.00,,,0.00,0.0,meteohub,2013-03-17 04:25:00,
2013-03-16 21:30:00,68.4,21.9,29.88,West,269,1.0,2.0,17,0.00,,,0.00,0.0,meteohub,2013-03-17 04:30:00,
2013-03-16 21:35:00,67.3,22.3,29.88,West,269,0.0,2.0,18,0.00,,,0.00,0.0,meteohub,2013-03-17 04:35:00,
2013-03-16 21:40:00,66.0,22.6,29.89,West,269,1.0,2.0,19,0.00,,,0.00,0.0,meteohub,2013-03-17 04:40:00,
2013-03-16 21:45:00,65.5,22.1,29.89,West,269,0.0,2.0,19,0.00,,,0.00,0.0,meteohub,2013-03-17 04:45:00,
2013-03-16 21:50:00,64.6,21.4,29.89,West,269,0.0,2.0,19,0.00,,,0.00,0.0,meteohub,2013-03-17 04:50:00,
2013-03-16 21:55:00,63.7,21.9,29.90,West,269,1.0,2.0,20,0.00,,,0.00,0.0,meteohub,2013-03-17 04:55:00,
2013-03-16 22:01:00,63.0,21.2,29.90,West,269,0.0,3.0,20,0.00,,,0.00,0.0,meteohub,2013-03-17 05:01:00,
2013-03-16 22:06:00,63.0,21.2,29.90,West,279,1.0,3.0,20,0.00,,,0.00,0.0,meteohub,2013-03-17 05:06:00,
2013-03-16 22:11:00,63.3,20.3,29.90,West,279,1.0,3.0,19,0.00,,,0.00,0.0,meteohub,2013-03-17 05:11:00,
2013-03-16 22:16:00,63.1,20.1,29.90,West,279,0.0,3.0,19,0.00,,,0.00,0.0,meteohub,2013-03-17 05:16:00,
2013-03-16 22:21:00,63.1,21.4,29.91,West,279,1.0,3.0,20,0.00,,,0.00,0.0,meteohub,2013-03-17 05:21:00,
2013-03-16 22:26:00,62.8,21.0,29.91,West,279,0.0,3.0,20,0.00,,,0.00,0.0,meteohub,2013-03-17 05:26:00,
2013-03-16 22:31:00,62.2,21.7,29.91,West,279,0.0,3.0,21,0.00,,,0.00,0.0,meteohub,2013-03-17 05:31:00,
2013-03-16 22:36:00,62.1,21.7,29.91,West,279,1.0,2.0,21,0.00,,,0.00,0.0,meteohub,2013-03-17 05:36:00,
2013-03-16 22:41:00,61.5,22.3,29.91,West,279,1.0,2.0,22,0.00,,,0.00,0.0,meteohub,2013-03-17 05:41:00,
2013-03-16 22:46:00,61.0,21.9,29.91,West,279,0.0,2.0,22,0.00,,,0.00,0.0,meteohub,2013-03-17 05:46:00,
2013-03-16 22:51:00,60.3,22.3,29.91,West,279,0.0,2.0,23,0.00,,,0.00,0.0,meteohub,2013-03-17 05:51:00,
2013-03-16 22:56:00,59.5,22.6,29.91,West,279,0.0,2.0,24,0.00,,,0.00,0.0,meteohub,2013-03-17 05:56:00,
2013-03-16 23:01:00,58.6,22.8,29.91,West,279,1.0,2.0,25,0.00,,,0.00,0.0,meteohub,2013-03-17 06:01:00,
2013-03-16 23:06:00,58.5,23.7,29.91,West,279,0.0,2.0,26,0.00,,,0.00,0.0,meteohub,2013-03-17 06:06:00,
2013-03-16 23:12:00,57.7,23.9,29.91,West,279,0.0,1.0,27,0.00,,,0.00,0.0,meteohub,2013-03-17 06:12:00,
2013-03-16 23:17:00,57.4,23.7,29.91,West,279,0.0,1.0,27,0.00,,,0.00,0.0,meteohub,2013-03-17 06:17:00,
2013-03-16 23:22:00,56.8,23.2,29.91,West,279,0.0,1.0,27,0.00,,,0.00,0.0,meteohub,2013-03-17 06:22:00,
2013-03-16 23:27:00,56.7,23.9,29.91,West,279,0.0,2.0,28,0.00,,,0.00,0.0,meteohub,2013-03-17 06:27:00,
2013-03-16 23:32:00,56.5,22.8,29.91,West,279,0.0,2.0,27,0.00,,,0.00,0.0,meteohub,2013-03-17 06:32:00,
2013-03-16 23:37:00,56.5,23.7,29.91,West,279,1.0,1.0,28,0.00,,,0.00,0.0,meteohub,2013-03-17 06:37:00,
2013-03-16 23:42:00,56.3,23.5,29.91,West,279,0.0,1.0,28,0.00,,,0.00,0.0,meteohub,2013-03-17 06:42:00,
2013-03-16 23:47:00,56.3,23.5,29.91,West,279,1.0,1.0,28,0.00,,,0.00,0.0,meteohub,2013-03-17 06:47:00,
2013-03-16 23:52:00,56.1,23.4,29.91,West,279,1.0,1.0,28,0.00,,,0.00,0.0,meteohub,2013-03-17 06:52:00,
2013-03-16 23:57:00,55.9,23.4,29.91,West,279,1.0,1.0,28,0.00,,,0.00,0.0,meteohub,2013-03-17 06:57:00,